Time;durP1;ratioP1;P1;durP2;ratioP2;P2;SDS_P1;SDS_P2;PMS_P1;PMS_P2;Temp;Humidity;BMP_temperature;BMP_pressure;BME280_temperature;BME280_humidity;BME280_pressure;Samples;Min_cycle;Max_cycle;Signal;HPM_P1;HPM_P2
2023/07/13 00:02:04;;;;;;;3.50;3.30;;;;;;;23.44;49.40;64432.38;5151527;27;20428;-83
2023/07/13 00:04:32;;;;;;;3.25;2.95;;;;;;;23.44;49.93;64429.25;5152171;27;20543;-82
2023/07/13 00:06:59;;;;;;;3.65;3.35;;;;;;;23.37;49.26;64425.06;5150744;27;20247;-81
2023/07/13 00:09:27;;;;;;;2.78;2.60;;;;;;;23.43;49.18;64428.75;5123313;27;20240;-83
2023/07/13 00:11:57;;;;;;;2.92;2.83;;;;;;;23.40;49.65;64425.09;5067194;27;20213;-82
2023/07/13 00:14:24;;;;;;;3.05;2.85;;;;;;;23.40;49.71;64427.69;5067477;27;20252;-83
2023/07/13 00:16:52;;;;;;;3.90;3.55;;;;;;;23.37;50.15;64425.06;5066786;28;20216;-81
2023/07/13 00:19:20;;;;;;;4.18;3.10;;;;;;;23.22;50.17;64406.75;5066818;28;20209;-82
2023/07/13 00:21:48;;;;;;;3.33;3.03;;;;;;;23.35;50.66;64419.84;5066744;27;20237;-82
2023/07/13 00:24:23;;;;;;;3.45;3.13;;;;;;;23.32;51.67;64416.69;5068073;27;20189;-82
2023/07/13 00:26:51;;;;;;;6.05;3.42;;;;;;;23.20;51.93;64404.13;5067412;28;20220;-83
2023/07/13 00:29:18;;;;;;;3.17;2.97;;;;;;;22.95;52.43;64378.53;5069125;27;20273;-83
2023/07/13 00:31:46;;;;;;;5.18;3.28;;;;;;;;;;5067116;28;20225;-82
2023/07/13 00:34:13;;;;;;;3.83;3.53;;;;;;;23.07;53.17;64398.88;5066977;27;20245;-81
2023/07/13 00:36:40;;;;;;;4.03;3.63;;;;;;;22.99;53.40;64382.19;5067099;28;20226;-81
2023/07/13 00:39:08;;;;;;;3.72;3.30;;;;;;;22.82;53.25;64365.44;5068214;28;20234;-82
2023/07/13 00:41:36;;;;;;;3.60;3.38;;;;;;;22.91;53.89;64374.34;5067554;27;20380;-82
2023/07/13 00:44:05;;;;;;;4.07;3.78;;;;;;;22.86;55.08;64369.09;5066533;28;20197;-81
2023/07/13 00:46:34;;;;;;;3.90;3.60;;;;;;;22.82;56.37;64365.44;5065171;28;20221;-82
2023/07/13 00:49:05;;;;;;;3.50;3.30;;;;;;;22.84;56.71;64364.94;5066363;27;20228;-82
2023/07/13 00:51:37;;;;;;;3.90;3.60;;;;;;;22.62;55.93;64349.19;5067813;27;20246;-82
2023/07/13 00:54:11;;;;;;;4.65;3.55;;;;;;;22.65;57.03;64347.13;5066548;27;20189;-81
2023/07/13 00:56:40;;;;;;;5.53;4.20;;;;;;;22.65;56.47;64344.53;5069331;27;20231;-82
2023/07/13 00:59:11;;;;;;;6.68;3.83;;;;;;;22.63;56.55;64347.63;5069303;28;20204;-84
2023/07/13 01:01:39;;;;;;;3.95;3.58;;;;;;;22.54;56.81;64330.44;5070051;28;20213;-82
2023/07/13 01:04:07;;;;;;;3.40;3.20;;;;;;;22.36;56.77;64322.53;5070581;28;20201;-83
2023/07/13 01:06:36;;;;;;;3.47;3.17;;;;;;;22.52;56.48;64333.53;5069922;28;20205;-81
2023/07/13 01:09:04;;;;;;;4.25;3.38;;;;;;;22.50;56.92;64331.94;5070781;28;20548;-81
2023/07/13 01:11:32;;;;;;;3.80;3.55;;;;;;;22.51;57.25;64335.06;5070557;28;20242;-81
2023/07/13 01:14:01;;;;;;;3.65;3.35;;;;;;;22.45;58.12;64326.72;5068390;28;20275;-81
2023/07/13 01:16:32;;;;;;;4.30;3.65;;;;;;;22.37;57.36;64315.78;5070540;28;20237;-82
2023/07/13 01:19:01;;;;;;;4.10;3.80;;;;;;;22.29;58.66;64312.59;5050350;27;20443;-81
2023/07/13 01:21:31;;;;;;;7.85;3.08;;;;;;;22.37;58.19;64320.97;5050985;28;20579;-82
2023/07/13 01:23:59;;;;;;;3.85;3.55;;;;;;;22.35;58.35;64318.34;5051001;28;20186;-82
2023/07/13 01:26:27;;;;;;;6.60;3.55;;;;;;;22.28;58.13;64314.16;5051042;28;20275;-82
2023/07/13 01:28:56;;;;;;;4.00;3.63;;;;;;;22.46;58.62;64327.25;5050530;28;20233;-82
2023/07/13 01:31:23;;;;;;;4.53;4.22;;;;;;;22.45;58.00;64331.91;5050425;28;20243;-83
2023/07/13 01:33:50;;;;;;;3.80;3.50;;;;;;;22.49;58.36;64335.56;5049909;28;20201;-83
2023/07/13 01:36:17;;;;;;;3.72;3.42;;;;;;;22.47;58.77;64328.81;5062359;28;20213;-84
2023/07/13 01:38:46;;;;;;;8.88;4.25;;;;;;;22.59;58.15;64340.88;5070256;28;20197;-82
2023/07/13 01:41:13;;;;;;;4.70;4.40;;;;;;;22.29;61.07;64310.00;5068799;28;20311;-82
2023/07/13 01:43:40;;;;;;;4.72;4.05;;;;;;;22.26;61.18;64306.88;5070396;28;20205;-83
2023/07/13 01:46:07;;;;;;;4.13;3.80;;;;;;;22.05;61.63;64284.94;5069064;28;20216;-83
2023/07/13 01:48:34;;;;;;;3.67;3.47;;;;;;;22.15;63.06;64295.38;5070068;28;20228;-81
2023/07/13 01:51:01;;;;;;;4.30;3.90;;;;;;;22.14;62.39;64293.81;5070684;27;20280;-81
2023/07/13 01:53:29;;;;;;;4.35;4.00;;;;;;;22.11;62.52;64293.25;5069472;27;20256;-81
2023/07/13 01:55:58;;;;;;;5.88;3.80;;;;;;;22.14;62.04;64296.91;5068929;28;20217;-82
2023/07/13 01:58:25;;;;;;;3.92;3.70;;;;;;;22.13;61.67;64295.88;5069538;28;20197;-82
2023/07/13 02:00:53;;;;;;;4.38;4.07;;;;;;;22.11;62.48;64291.19;5067797;27;20212;-84
2023/07/13 02:03:20;;;;;;;4.13;3.83;;;;;;;22.08;63.72;64290.13;5069643;28;20197;-82
2023/07/13 02:05:47;;;;;;;8.13;3.78;;;;;;;22.04;62.85;64286.47;5069545;27;20233;-81
2023/07/13 02:08:14;;;;;;;4.97;4.57;;;;;;;21.99;64.00;64283.31;5071593;28;20234;-83
2023/07/13 02:10:42;;;;;;;4.72;4.35;;;;;;;22.03;64.87;64277.66;5069466;28;20224;-83
2023/07/13 02:13:10;;;;;;;4.80;4.28;;;;;;;21.95;63.16;64274.47;5070184;28;20228;-82
2023/07/13 02:15:42;;;;;;;4.43;4.03;;;;;;;21.94;65.87;64276.03;5069990;28;20213;-81
2023/07/13 02:18:09;;;;;;;4.20;3.90;;;;;;;21.76;66.25;64257.19;5069405;28;20185;-82
2023/07/13 02:20:36;;;;;;;4.57;4.10;;;;;;;21.87;64.68;64263.00;5069742;28;20269;-82
2023/07/13 02:23:04;;;;;;;4.43;4.10;;;;;;;21.84;66.16;64265.03;5070154;28;20252;-82
2023/07/13 02:25:31;;;;;;;4.22;3.95;;;;;;;21.74;67.41;64249.91;5070071;28;20214;-83
2023/07/13 02:27:59;;;;;;;5.00;4.45;;;;;;;21.52;66.03;64227.44;5070433;28;20193;-80
2023/07/13 02:30:29;;;;;;;4.15;3.85;;;;;;;21.65;66.41;64246.22;5070318;28;20197;-82
2023/07/13 02:32:57;;;;;;;5.50;4.57;;;;;;;21.60;67.64;64235.81;5068826;28;20193;-82
2023/07/13 02:35:24;;;;;;;4.75;4.18;;;;;;;21.69;66.43;64247.81;5070360;28;20197;-81
2023/07/13 02:37:51;;;;;;;5.03;4.00;;;;;;;21.71;67.53;64252.50;5069681;28;20196;-82
2023/07/13 02:40:18;;;;;;;5.70;4.38;;;;;;;21.66;66.85;64244.66;5070630;28;20209;-83
2023/07/13 02:42:45;;;;;;;4.25;3.95;;;;;;;21.54;68.47;64237.31;5068333;28;20193;-83
2023/07/13 02:45:13;;;;;;;4.95;4.45;;;;;;;21.63;67.33;64238.41;5068986;28;20200;-81
2023/07/13 02:47:43;;;;;;;9.00;4.18;;;;;;;21.53;66.44;64236.28;5069136;28;20222;-83
2023/07/13 02:50:10;;;;;;;4.00;3.78;;;;;;;21.47;65.69;64221.69;5070541;28;20216;-82
2023/07/13 02:52:38;;;;;;;5.95;4.25;;;;;;;21.60;67.09;64235.28;5067635;28;20248;-83
2023/07/13 02:55:06;;;;;;;4.95;4.47;;;;;;;21.55;66.33;64230.06;5069380;28;20197;-81
2023/07/13 02:57:33;;;;;;;4.30;3.97;;;;;;;21.53;66.54;64230.56;5069625;28;20224;-81
2023/07/13 03:00:01;;;;;;;9.68;5.20;;;;;;;21.63;64.88;64236.34;5069172;28;20214;-82
2023/07/13 03:02:28;;;;;;;5.57;4.15;;;;;;;21.38;65.22;64215.41;5068942;28;20228;-82
2023/07/13 03:04:57;;;;;;;4.78;4.32;;;;;;;21.65;65.74;64248.28;5069345;28;20197;-82
2023/07/13 03:07:25;;;;;;;4.40;3.97;;;;;;;21.78;65.25;64257.22;5070210;28;20236;-82
2023/07/13 03:09:56;;;;;;;4.30;4.00;;;;;;;21.73;66.79;64251.47;5069015;28;20296;-83
2023/07/13 03:12:24;;;;;;;6.43;4.07;;;;;;;21.74;65.30;64257.69;5068725;27;20217;-83
2023/07/13 03:14:51;;;;;;;5.47;4.57;;;;;;;21.71;66.87;64247.31;5068522;28;20197;-83
2023/07/13 03:17:18;;;;;;;5.88;4.65;;;;;;;21.78;66.74;64257.22;5068976;27;20232;-82
2023/07/13 03:19:49;;;;;;;4.60;4.18;;;;;;;21.74;68.18;64249.91;5069448;27;20193;-81
2023/07/13 03:22:18;;;;;;;6.63;4.18;;;;;;;21.75;68.18;64259.25;5067161;27;20421;-83
2023/07/13 03:24:46;;;;;;;5.75;4.78;;;;;;;21.76;69.07;64252.00;5069024;27;20185;-81
2023/07/13 03:27:13;;;;;;;5.35;4.68;;;;;;;21.69;69.47;64244.69;5070052;28;20273;-82
2023/07/13 03:29:40;;;;;;;5.60;5.10;;;;;;;21.60;69.63;64235.81;5069282;27;20239;-82
2023/07/13 03:32:09;;;;;;;5.80;5.28;;;;;;;21.66;70.36;64246.75;5068400;27;20216;-83
2023/07/13 03:34:36;;;;;;;6.38;5.57;;;;;;;21.56;69.17;64233.69;5106893;27;20208;-82
2023/07/13 03:37:03;;;;;;;7.78;4.72;;;;;;;21.76;71.04;64257.72;5153533;27;20225;-83
2023/07/13 03:39:33;;;;;;;7.55;5.03;;;;;;;21.77;70.16;64258.78;5153762;27;20200;-82
2023/07/13 03:42:00;;;;;;;6.35;5.65;;;;;;;21.71;71.57;64247.31;5154554;27;20220;-82
2023/07/13 03:44:28;;;;;;;7.00;5.32;;;;;;;21.87;71.12;64265.59;5153327;27;20257;-83
2023/07/13 03:46:55;;;;;;;10.30;5.03;;;;;;;21.85;71.27;64264.00;5156040;27;20213;-83
2023/07/13 03:49:22;;;;;;;7.90;5.13;;;;;;;21.75;72.36;64253.56;5152310;27;20333;-82
2023/07/13 03:51:50;;;;;;;11.02;7.03;;;;;;;22.07;71.58;64291.69;5157432;27;20242;-82
2023/07/13 03:54:17;;;;;;;5.95;5.18;;;;;;;22.04;71.68;64283.38;5151054;27;20190;-83
2023/07/13 03:56:46;;;;;;;5.63;4.68;;;;;;;22.16;72.51;64295.91;5154064;27;20284;-82
2023/07/13 03:59:13;;;;;;;5.63;5.13;;;;;;;22.24;71.26;64304.25;5152553;27;20194;-81
2023/07/13 04:01:40;;;;;;;5.00;4.70;;;;;;;22.18;71.94;64297.97;5152854;27;20218;-82
2023/07/13 04:04:07;;;;;;;6.95;4.82;;;;;;;22.43;70.63;64324.66;5151391;27;20228;-82
2023/07/13 04:06:35;;;;;;;4.82;4.45;;;;;;;22.56;71.83;64340.31;5154747;27;20214;-82
2023/07/13 04:09:05;;;;;;;8.50;5.80;;;;;;;22.65;71.64;64347.13;5152364;27;20249;-82
2023/07/13 04:11:33;;;;;;;5.55;5.15;;;;;;;22.74;70.43;64356.56;5150649;27;20222;-82
2023/07/13 04:14:02;;;;;;;11.50;5.85;;;;;;;22.87;71.02;64370.13;5153756;27;20249;-82
2023/07/13 04:16:29;;;;;;;6.18;5.57;;;;;;;22.92;70.78;64372.78;5154321;27;20233;-82
2023/07/13 04:18:59;;;;;;;7.25;5.82;;;;;;;23.12;74.12;64401.50;5150704;27;20194;-84
2023/07/13 04:21:26;;;;;;;5.13;4.65;;;;;;;23.11;69.63;64399.94;5152751;27;20213;-83
2023/07/13 04:23:54;;;;;;;5.40;4.85;;;;;;;23.31;67.83;64421.41;5150238;27;20216;-81
2023/07/13 04:26:22;;;;;;;6.80;4.97;;;;;;;23.50;68.10;64433.47;5150367;27;20210;-82
2023/07/13 04:28:49;;;;;;;5.55;5.05;;;;;;;23.62;72.00;64446.03;5155003;27;20179;-81
2023/07/13 04:31:18;;;;;;;6.32;5.78;;;;;;;23.70;85.26;64462.19;5152100;27;20263;-84
2023/07/13 04:33:45;;;;;;;5.50;5.00;;;;;;;23.72;85.60;64458.56;5157968;27;20248;-82
2023/07/13 04:36:12;;;;;;;7.28;5.35;;;;;;;23.75;81.53;64462.22;5177079;27;20303;-81
2023/07/13 04:38:40;;;;;;;5.93;5.32;;;;;;;23.93;76.20;64481.06;5175094;27;20193;-82
2023/07/13 04:41:08;;;;;;;6.13;5.63;;;;;;;23.96;74.59;64483.69;5176049;27;20220;-83
2023/07/13 04:43:37;;;;;;;6.60;6.00;;;;;;;23.94;71.80;64476.38;5178900;27;20253;-83
2023/07/13 04:46:05;;;;;;;9.93;6.07;;;;;;;23.91;73.84;64478.44;5177791;27;20243;-83
2023/07/13 04:48:34;;;;;;;9.13;7.18;;;;;;;23.26;74.78;64410.41;5176120;27;20370;-82
2023/07/13 04:51:02;;;;;;;10.88;5.80;;;;;;;23.35;75.06;64417.25;5178350;27;20240;-81
2023/07/13 04:53:32;;;;;;;9.00;6.30;;;;;;;23.23;76.19;64407.78;5175421;27;20234;-83
2023/07/13 04:55:59;;;;;;;9.70;6.00;;;;;;;23.27;76.83;64414.06;5177014;27;20276;-81
2023/07/13 04:58:27;;;;;;;9.65;6.00;;;;;;;23.14;79.75;64395.25;5178587;27;20205;-81
2023/07/13 05:00:55;;;;;;;10.93;6.30;;;;;;;23.23;79.14;64409.88;5177656;27;20217;-81
2023/07/13 05:03:22;;;;;;;9.52;7.35;;;;;;;22.96;79.15;64381.63;5176115;27;20193;-84
2023/07/13 05:05:58;;;;;;;8.40;7.55;;;;;;;22.99;79.36;64382.69;5174688;27;20233;-82
2023/07/13 05:08:25;;;;;;;14.75;7.95;;;;;;;23.04;78.15;64387.41;5176897;27;20518;-83
2023/07/13 05:10:53;;;;;;;10.93;6.97;;;;;;;23.25;77.23;64412.50;5176078;27;20274;-83
2023/07/13 05:13:20;;;;;;;11.43;8.77;;;;;;;23.33;75.35;64420.34;5176421;27;20201;-83
2023/07/13 05:15:56;;;;;;;14.68;8.50;;;;;;;23.61;75.05;64444.44;5176991;27;20213;-84
2023/07/13 05:18:23;;;;;;;11.45;7.25;;;;;;;23.79;74.21;64466.41;5176774;27;20200;-80
2023/07/13 05:20:59;;;;;;;10.30;7.55;;;;;;;23.95;72.80;64485.75;5176528;27;20210;-82
2023/07/13 05:23:26;;;;;;;11.00;8.25;;;;;;;24.10;71.34;64500.44;5176452;27;20234;-82
2023/07/13 05:25:54;;;;;;;10.13;7.72;;;;;;;24.19;71.98;64504.66;5174728;27;20213;-82
2023/07/13 05:28:21;;;;;;;8.68;7.80;;;;;;;24.02;72.28;64492.06;5177870;27;20193;-81
2023/07/13 05:30:49;;;;;;;11.02;7.35;;;;;;;24.02;72.03;64490.50;5174762;27;20233;-82
2023/07/13 05:33:17;;;;;;;9.70;7.20;;;;;;;24.11;70.83;64501.47;5176355;27;20224;-80
2023/07/13 05:35:44;;;;;;;12.05;8.60;;;;;;;24.32;71.71;64518.25;5173675;27;20234;-81
2023/07/13 05:38:13;;;;;;;13.27;8.43;;;;;;;24.15;73.15;64500.97;5174263;27;20533;-81
2023/07/13 05:40:40;;;;;;;10.20;7.53;;;;;;;24.50;73.73;64542.84;5176041;27;20279;-82
2023/07/13 05:43:08;;;;;;;16.00;8.25;;;;;;;24.50;72.85;64537.09;5174677;27;20193;-82
2023/07/13 05:45:35;;;;;;;13.73;8.85;;;;;;;24.47;72.07;64533.97;5174817;27;20213;-82
2023/07/13 05:48:02;;;;;;;19.38;8.88;;;;;;;24.56;70.72;64545.97;5175530;27;20209;-83
2023/07/13 05:50:29;;;;;;;11.13;9.35;;;;;;;24.55;71.10;64542.34;5173666;27;20438;-82
2023/07/13 05:52:56;;;;;;;15.23;8.70;;;;;;;24.52;70.84;64541.81;5173650;27;20190;-82
2023/07/13 05:55:25;;;;;;;14.63;7.88;;;;;;;24.62;70.43;64552.28;5176410;27;20189;-82
2023/07/13 05:57:52;;;;;;;12.45;8.27;;;;;;;24.67;73.45;64562.72;5176172;27;20269;-83
2023/07/13 06:00:20;;;;;;;13.75;7.68;;;;;;;24.69;74.74;64559.63;5175936;27;20204;-82
2023/07/13 06:02:47;;;;;;;9.38;8.02;;;;;;;24.68;70.47;64566.88;5174829;27;20193;-84
2023/07/13 06:05:14;;;;;;;10.45;7.45;;;;;;;24.82;67.30;64573.22;5173901;27;20253;-82
2023/07/13 06:07:42;;;;;;;15.55;7.70;;;;;;;25.06;70.42;64601.50;5172745;27;20208;-81
2023/07/13 06:10:10;;;;;;;10.88;8.23;;;;;;;25.22;70.94;64612.53;5176124;27;20246;-83
2023/07/13 06:12:38;;;;;;;9.85;7.22;;;;;;;25.34;72.89;64627.19;5177486;27;20209;-82
2023/07/13 06:15:07;;;;;;;10.13;7.78;;;;;;;25.41;69.30;64639.75;5173971;27;20182;-83
2023/07/13 06:17:34;;;;;;;17.15;8.10;;;;;;;25.57;70.30;64651.31;5174129;27;20254;-81
2023/07/13 06:20:01;;;;;;;13.70;8.10;;;;;;;25.69;69.01;64661.78;5173453;27;20304;-82
2023/07/13 06:22:28;;;;;;;12.50;7.72;;;;;;;25.80;67.17;64678.53;5174495;27;20220;-81
2023/07/13 06:24:55;;;;;;;11.25;7.28;;;;;;;26.04;65.32;64697.97;5178166;27;20262;-84
2023/07/13 06:27:23;;;;;;;17.33;8.20;;;;;;;26.01;64.72;64694.78;5175183;27;20217;-82
2023/07/13 06:29:51;;;;;;;18.40;8.05;;;;;;;25.94;61.57;64690.06;5174561;27;20452;-82
2023/07/13 06:32:18;;;;;;;10.60;7.82;;;;;;;26.20;60.71;64717.34;5174929;27;20221;-81
2023/07/13 06:34:45;;;;;;;15.70;7.60;;;;;;;26.44;60.29;64747.22;5176269;27;20226;-84
2023/07/13 06:37:13;;;;;;;9.93;7.53;;;;;;;26.50;59.43;64751.44;5174740;27;20213;-83
2023/07/13 06:39:40;;;;;;;11.40;7.50;;;;;;;26.46;59.13;64749.84;5177660;27;20190;-81
2023/07/13 06:42:08;;;;;;;9.43;7.25;;;;;;;26.66;60.01;64770.81;5174392;27;20213;-83
2023/07/13 06:44:35;;;;;;;10.40;7.65;;;;;;;26.68;61.85;64765.09;5173391;27;20220;-82
2023/07/13 06:47:04;;;;;;;8.88;7.47;;;;;;;26.61;60.25;64759.81;5174652;27;20239;-82
2023/07/13 06:49:32;;;;;;;9.02;7.93;;;;;;;26.71;59.94;64772.94;5173689;27;20216;-82
2023/07/13 06:52:00;;;;;;;12.10;7.75;;;;;;;26.77;61.44;64776.63;5176538;27;20216;-83
2023/07/13 06:54:27;;;;;;;9.35;7.60;;;;;;;26.80;59.36;64785.50;5176330;27;20200;-83
2023/07/13 06:56:55;;;;;;;12.38;7.72;;;;;;;26.84;57.35;64783.94;5174546;27;20555;-83
2023/07/13 06:59:23;;;;;;;12.98;7.07;;;;;;;26.80;59.35;64782.38;5173397;27;20200;-84
2023/07/13 07:01:50;;;;;;;14.40;6.85;;;;;;;26.93;61.07;64799.16;5176287;27;20269;-82
2023/07/13 07:04:18;;;;;;;10.80;7.82;;;;;;;26.97;59.40;64795.50;5175423;27;20200;-82
2023/07/13 07:06:46;;;;;;;10.07;7.30;;;;;;;26.85;59.83;64785.53;5175078;27;20235;-81
2023/07/13 07:09:13;;;;;;;9.88;7.68;;;;;;;27.19;56.82;64820.69;5174087;27;20197;-82
2023/07/13 07:11:40;;;;;;;11.82;7.07;;;;;;;27.25;57.26;64827.50;5174252;27;20252;-82
2023/07/13 07:14:09;;;;;;;8.82;6.75;;;;;;;27.42;56.69;64839.59;5171512;27;20186;-82
2023/07/13 07:16:37;;;;;;;8.48;7.28;;;;;;;27.35;54.60;64836.97;5175337;27;20242;-83
2023/07/13 07:19:04;;;;;;;7.57;6.97;;;;;;;27.61;55.12;64864.75;5175407;27;20544;-83
2023/07/13 07:21:32;;;;;;;11.73;6.57;;;;;;;27.63;55.64;64866.84;5172353;27;20218;-82
2023/07/13 07:24:00;;;;;;;8.30;6.93;;;;;;;27.46;55.50;64848.50;5173559;27;20483;-82
2023/07/13 07:26:30;;;;;;;8.07;6.80;;;;;;;27.60;54.60;64866.34;5172826;27;20247;-83
2023/07/13 07:28:57;;;;;;;7.63;6.93;;;;;;;27.69;54.46;64875.25;5173465;27;20300;-82
2023/07/13 07:31:25;;;;;;;7.35;6.65;;;;;;;27.72;56.31;64876.31;5176108;27;20233;-82
2023/07/13 07:33:54;;;;;;;6.55;6.03;;;;;;;27.98;55.06;64901.00;5174135;27;20189;-83
2023/07/13 07:36:21;;;;;;;9.00;7.03;;;;;;;28.08;54.28;64913.59;5174515;27;20214;-82
2023/07/13 07:38:50;;;;;;;7.88;6.63;;;;;;;28.24;53.15;64925.16;5174492;27;20220;-83
2023/07/13 07:41:19;;;;;;;7.53;6.75;;;;;;;28.42;52.20;64952.44;5174089;27;20213;-83
2023/07/13 07:43:46;;;;;;;7.43;6.72;;;;;;;28.08;51.51;64916.72;5174867;27;20203;-82
2023/07/13 07:46:13;;;;;;;9.10;7.38;;;;;;;28.21;51.37;64932.50;5174424;27;20240;-83
2023/07/13 07:48:41;;;;;;;9.75;7.10;;;;;;;27.95;51.49;64903.09;5173300;27;20185;-85
2023/07/13 07:51:08;;;;;;;12.93;7.47;;;;;;;28.07;54.35;64909.94;5173556;27;20229;-83
2023/07/13 07:53:36;;;;;;;9.05;7.15;;;;;;;28.36;53.62;64948.22;5173915;27;20197;-83
2023/07/13 07:56:05;;;;;;;7.22;6.55;;;;;;;28.29;51.29;64933.56;5173996;27;20244;-81
2023/07/13 07:58:33;;;;;;;9.23;7.03;;;;;;;28.49;52.17;64956.13;5175986;27;20208;-82
2023/07/13 08:01:05;;;;;;;11.57;6.95;;;;;;;28.50;51.59;64955.06;5173888;27;20216;-83
2023/07/13 08:03:32;;;;;;;9.25;7.70;;;;;;;28.48;51.21;64955.59;5172283;27;20524;-84
2023/07/13 08:06:00;;;;;;;7.28;6.60;;;;;;;28.62;51.64;64967.69;5173210;27;20223;-81
2023/07/13 08:08:27;;;;;;;9.48;7.20;;;;;;;28.60;51.40;64970.31;5173520;27;20252;-82
2023/07/13 08:10:54;;;;;;;11.05;6.75;;;;;;;28.91;51.82;65005.50;5074937;27;20589;-85
2023/07/13 08:13:23;;;;;;;9.93;6.75;;;;;;;29.25;51.35;65038.63;5069936;27;20248;-83
2023/07/13 08:15:50;;;;;;;7.57;6.72;;;;;;;29.22;50.95;65038.59;5068988;27;20243;-82
2023/07/13 08:18:17;;;;;;;8.18;7.32;;;;;;;29.33;50.20;65047.56;5066158;27;20207;-82
2023/07/13 08:20:45;;;;;;;7.45;6.68;;;;;;;29.32;49.87;65041.25;5067602;27;20275;-82
2023/07/13 08:23:12;;;;;;;7.43;6.82;;;;;;;29.41;51.88;65055.41;5068882;27;20259;-83
2023/07/13 08:25:40;;;;;;;7.15;6.65;;;;;;;29.43;51.76;65055.44;5068473;27;20224;-83
2023/07/13 08:28:07;;;;;;;8.60;7.70;;;;;;;29.49;51.75;65064.34;5068556;28;20230;-83
2023/07/13 08:30:37;;;;;;;12.20;7.43;;;;;;;29.47;52.08;65061.72;5067828;27;20581;-83
2023/07/13 08:33:05;;;;;;;9.18;7.13;;;;;;;29.72;51.88;65082.25;5067079;27;20185;-81
2023/07/13 08:35:32;;;;;;;9.50;7.53;;;;;;;29.81;52.74;65100.13;5158278;27;20219;-82
2023/07/13 08:38:00;;;;;;;8.48;7.03;;;;;;;29.62;51.04;65072.25;5173298;27;20197;-82
2023/07/13 08:40:29;;;;;;;9.48;7.82;;;;;;;29.74;50.13;65089.59;5173037;27;20189;-83
2023/07/13 08:42:59;;;;;;;9.85;7.55;;;;;;;29.84;52.16;65094.88;5172806;27;20197;-82
2023/07/13 08:45:36;;;;;;;10.18;7.45;;;;;;;30.07;50.98;65119.56;5172245;27;20185;-81
2023/07/13 08:48:12;;;;;;;7.93;7.32;;;;;;;30.21;48.91;65141.63;5172409;27;20230;-83
2023/07/13 08:50:49;;;;;;;9.18;7.50;;;;;;;30.22;47.29;65140.59;5174498;27;20238;-81
2023/07/13 08:53:18;;;;;;;7.57;6.90;;;;;;;30.10;47.07;65124.81;5173451;27;20189;-83
2023/07/13 08:55:45;;;;;;;9.23;7.50;;;;;;;30.06;49.14;65123.75;5172028;27;20213;-82
2023/07/13 08:58:14;;;;;;;8.13;7.53;;;;;;;30.25;48.67;65143.75;5172443;27;20231;-81
2023/07/13 09:00:52;;;;;;;7.25;6.68;;;;;;;30.15;48.76;65135.34;5172371;27;20213;-83
2023/07/13 09:03:24;;;;;;;12.48;7.15;;;;;;;30.17;47.30;65132.69;5173722;27;20214;-82
2023/07/13 09:05:56;;;;;;;10.43;7.50;;;;;;;30.47;47.85;65166.38;5172142;27;20220;-83
2023/07/13 09:08:47;;;;;;;7.70;7.00;;;;;;;30.39;46.80;65158.47;5171649;27;20372;-83
2023/07/13 09:11:29;;;;;;;6.82;6.18;;;;;;;30.65;46.46;65182.16;5050014;28;20281;-82
2023/07/13 09:14:06;;;;;;;8.70;7.03;;;;;;;30.63;45.24;65180.56;5047102;27;20235;-80
2023/07/13 09:16:35;;;;;;;8.85;7.88;;;;;;;30.04;44.56;65119.03;5046690;28;20221;-86
2023/07/13 09:19:08;;;;;;;7.13;6.53;;;;;;;30.28;44.53;65141.13;5050532;28;20242;-84
2023/07/13 09:21:42;;;;;;;7.90;7.05;;;;;;;30.30;45.84;65145.88;5049091;27;20240;-83
2023/07/13 09:24:29;;;;;;;9.38;7.07;;;;;;;30.54;46.33;65171.09;5049643;27;20213;-82
2023/07/13 09:26:56;;;;;;;9.35;7.15;;;;;;;30.64;44.77;65184.25;5051763;27;20217;-84
2023/07/13 09:29:29;;;;;;;9.00;7.03;;;;;;;30.89;43.57;65212.69;5051648;28;20196;-83
2023/07/13 09:32:02;;;;;;;7.65;7.05;;;;;;;30.98;45.27;65222.66;5051007;28;20231;-84
2023/07/13 09:34:33;;;;;;;6.72;6.13;;;;;;;30.88;41.44;65206.34;5104497;27;20192;-84
2023/07/13 09:37:00;;;;;;;9.35;6.82;;;;;;;31.02;40.79;65226.88;5174664;27;20298;-82
2023/07/13 09:39:30;;;;;;;7.18;6.57;;;;;;;30.86;39.87;65206.91;5174932;27;20224;-82
2023/07/13 09:42:07;;;;;;;10.50;7.40;;;;;;;31.04;39.75;65223.72;5177557;27;20217;-83
2023/07/13 09:44:37;;;;;;;7.43;6.78;;;;;;;31.01;40.07;65220.03;5176028;27;20192;-84
2023/07/13 09:47:18;;;;;;;6.50;5.90;;;;;;;31.19;38.90;65244.22;5176416;27;20198;-84
2023/07/13 09:49:47;;;;;;;9.82;6.38;;;;;;;31.24;39.82;65250.03;5176025;27;20192;-86
2023/07/13 09:52:17;;;;;;;7.43;6.93;;;;;;;31.63;41.32;65285.28;5174920;27;20227;-84
2023/07/13 09:54:48;;;;;;;7.68;6.78;;;;;;;31.71;41.51;65293.72;5175144;27;20196;-84
2023/07/13 09:57:17;;;;;;;10.63;6.75;;;;;;;31.99;42.39;65322.66;5176251;27;20237;-83
2023/07/13 09:59:46;;;;;;;12.00;6.63;;;;;;;32.18;39.41;65342.69;5175684;27;20201;-83
2023/07/13 10:02:28;;;;;;;7.78;6.75;;;;;;;32.13;38.89;65337.94;5176380;27;20209;-84
2023/07/13 10:05:02;;;;;;;8.95;6.88;;;;;;;32.11;41.49;65335.84;5176246;27;20185;-84
2023/07/13 10:07:30;;;;;;;11.75;8.35;;;;;;;32.00;41.63;65326.34;5174016;27;20213;-85
2023/07/13 10:10:00;;;;;;;7.90;7.15;;;;;;;31.99;42.26;65323.22;5174578;27;20214;-84
2023/07/13 10:12:28;;;;;;;10.60;7.38;;;;;;;32.05;39.26;65332.16;5175736;27;20329;-82
2023/07/13 10:15:00;;;;;;;9.60;7.18;;;;;;;31.93;40.38;65314.25;5176018;27;20546;-84
2023/07/13 10:17:32;;;;;;;11.82;7.50;;;;;;;32.07;42.12;65331.63;5175008;27;20217;-82
2023/07/13 10:20:05;;;;;;;8.38;7.57;;;;;;;32.45;41.34;65371.66;5176791;27;20242;-83
2023/07/13 10:22:43;;;;;;;9.93;6.95;;;;;;;32.69;39.04;65394.28;5173726;27;20402;-83
2023/07/13 10:25:18;;;;;;;11.15;6.93;;;;;;;32.91;40.89;65422.19;5173576;27;20211;-81
2023/07/13 10:27:47;;;;;;;7.75;6.75;;;;;;;33.11;38.07;65442.78;5175991;27;20196;-84
2023/07/13 10:30:20;;;;;;;8.73;8.00;;;;;;;32.97;37.31;65425.38;5174490;27;20223;-83
2023/07/13 10:32:48;;;;;;;9.73;7.07;;;;;;;32.65;38.53;65394.84;5173693;27;20312;-83
2023/07/13 10:35:19;;;;;;;12.10;7.07;;;;;;;33.05;42.10;65434.31;5099422;27;20211;-82
2023/07/13 10:37:51;;;;;;;7.85;7.22;;;;;;;32.96;39.78;65430.16;5067848;27;20200;-81
2023/07/13 10:40:25;;;;;;;11.05;6.97;;;;;;;32.96;41.74;65424.88;5068338;27;20197;-83
2023/07/13 10:42:56;;;;;;;10.18;7.38;;;;;;;33.43;41.53;65473.88;5071295;28;20197;-84
2023/07/13 10:45:25;;;;;;;9.85;7.43;;;;;;;33.44;39.50;65475.44;5067186;27;20216;-82
2023/07/13 10:47:55;;;;;;;9.68;7.28;;;;;;;33.35;41.92;65468.06;5067996;27;20256;-82
2023/07/13 10:50:26;;;;;;;8.15;7.35;;;;;;;33.46;38.79;65480.19;5069819;27;20226;-83
2023/07/13 10:52:57;;;;;;;10.35;7.45;;;;;;;33.48;37.65;65479.66;5066920;28;20212;-82
2023/07/13 10:55:40;;;;;;;11.38;7.80;;;;;;;33.50;39.00;65487.06;5067834;28;20197;-82
2023/07/13 10:58:19;;;;;;;7.43;6.82;;;;;;;33.81;39.88;65514.44;5071434;27;20228;-84
2023/07/13 11:00:54;;;;;;;10.88;6.88;;;;;;;33.87;39.14;65517.59;5068431;28;20217;-83
2023/07/13 11:03:25;;;;;;;8.55;7.50;;;;;;;33.95;38.28;65530.81;5068865;27;20256;-84
2023/07/13 11:06:08;;;;;;;8.68;7.20;;;;;;;34.05;39.54;65541.88;5068186;28;20217;-83
2023/07/13 11:08:38;;;;;;;7.72;7.10;;;;;;;34.14;38.62;65550.81;5069995;28;20208;-83
2023/07/13 11:11:38;;;;;;;11.02;8.02;;;;;;;34.15;39.16;65551.88;5050618;28;20221;-83
2023/07/13 11:14:26;;;;;;;11.00;7.60;;;;;;;34.05;36.45;65538.72;5047861;28;20173;-83
2023/07/13 11:16:53;;;;;;;9.88;6.47;;;;;;;34.04;36.16;65543.47;5047738;27;20237;-83
2023/07/13 11:19:40;;;;;;;10.27;7.07;;;;;;;34.21;34.66;65556.09;5049282;28;20215;-82
2023/07/13 11:22:26;;;;;;;17.17;7.53;;;;;;;34.40;34.17;65578.22;5047513;27;20213;-83
2023/07/13 11:24:59;;;;;;;12.80;7.10;;;;;;;34.51;34.76;65587.22;5049102;27;20197;-83
2023/07/13 11:27:38;;;;;;;7.40;6.70;;;;;;;34.36;34.51;65574.03;5050434;27;20210;-83
2023/07/13 11:30:19;;;;;;;10.80;6.93;;;;;;;34.74;37.61;65614.13;5048369;28;20178;-81
2023/07/13 11:32:51;;;;;;;8.68;6.72;;;;;;;34.84;35.04;65619.88;5047964;28;20217;-84
2023/07/13 11:35:24;;;;;;;7.50;6.05;;;;;;;34.80;35.95;65620.44;5141272;27;20198;-84
2023/07/13 11:37:52;;;;;;;7.90;7.10;;;;;;;35.09;36.87;65643.09;5174318;27;20189;-84
2023/07/13 11:40:20;;;;;;;8.93;6.93;;;;;;;35.09;33.36;65648.41;5174006;27;20193;-81
2023/07/13 11:42:49;;;;;;;9.95;6.85;;;;;;;35.19;36.45;65661.06;5176736;27;20192;-82